createdAt,value
2023-01-22T00:01:16.317Z,42.90
2023-01-22T00:03:46.688Z,43.53
2023-01-22T00:06:16.059Z,43.67
2023-01-22T00:08:46.766Z,42.93
2023-01-22T00:11:16.036Z,44.67
2023-01-22T00:13:44.704Z,44.17
2023-01-22T00:16:13.990Z,43.23
2023-01-22T00:18:42.275Z,43.50
2023-01-22T00:21:11.420Z,42.30
2023-01-22T00:23:39.789Z,44.10
2023-01-22T00:26:12.745Z,43.13
2023-01-22T00:28:45.210Z,42.93
2023-01-22T00:31:14.308Z,43.40
2023-01-22T00:33:42.750Z,41.10
2023-01-22T00:36:13.397Z,42.57
2023-01-22T00:38:42.121Z,43.07
2023-01-22T00:41:12.123Z,43.60
2023-01-22T00:43:40.895Z,43.27
2023-01-22T00:46:10.645Z,41.97
2023-01-22T00:48:39.077Z,43.03
2023-01-22T00:51:09.226Z,39.83
2023-01-22T00:53:41.214Z,40.33
2023-01-22T00:56:11.411Z,38.83
2023-01-22T00:58:40.720Z,39.33
2023-01-22T01:01:09.110Z,38.03
2023-01-22T01:03:37.822Z,38.00
2023-01-22T01:06:08.772Z,37.93
2023-01-22T01:08:38.484Z,38.63
2023-01-22T01:11:09.554Z,38.70
2023-01-22T01:13:42.949Z,39.83
2023-01-22T01:16:14.706Z,40.17
2023-01-22T01:18:43.188Z,40.67
2023-01-22T01:21:12.206Z,40.37
2023-01-22T01:23:40.604Z,39.37
2023-01-22T01:26:10.642Z,39.00
2023-01-22T01:28:42.513Z,37.87
2023-01-22T01:31:14.062Z,37.90
2023-01-22T01:33:42.606Z,36.70
2023-01-22T01:36:13.312Z,36.60
2023-01-22T01:38:41.617Z,34.03
2023-01-22T01:41:09.771Z,34.17
2023-01-22T01:43:38.067Z,33.83
2023-01-22T01:46:18.256Z,33.50
2023-01-22T01:48:49.156Z,32.60
2023-01-22T01:51:21.703Z,33.10
2023-01-22T01:53:52.063Z,32.93
2023-01-22T01:56:24.477Z,33.33
2023-01-22T01:58:58.512Z,34.63
2023-01-22T02:01:29.036Z,33.90
2023-01-22T02:03:57.290Z,34.63
2023-01-22T02:06:25.367Z,33.97
2023-01-22T02:08:55.155Z,32.63
2023-01-22T02:11:24.095Z,33.00
2023-01-22T02:13:57.319Z,33.80
2023-01-22T02:16:25.489Z,33.37
2023-01-22T02:18:54.950Z,34.03
2023-01-22T02:21:34.024Z,33.30
2023-01-22T02:24:02.683Z,33.20
2023-01-22T02:26:30.847Z,33.33
2023-01-22T02:28:59.185Z,33.93
2023-01-22T02:31:30.342Z,31.70
2023-01-22T02:34:01.950Z,32.83
2023-01-22T02:36:35.745Z,32.30
2023-01-22T02:39:04.227Z,33.03
2023-01-22T02:41:33.168Z,32.00
2023-01-22T02:44:01.580Z,31.70
2023-01-22T02:46:30.541Z,31.63
2023-01-22T02:48:58.730Z,30.87
2023-01-22T02:51:26.925Z,30.40
2023-01-22T02:53:56.523Z,29.27
2023-01-22T02:56:24.799Z,30.07
2023-01-22T02:58:53.229Z,29.37
2023-01-22T03:01:24.006Z,29.23
2023-01-22T03:03:55.939Z,29.63
2023-01-22T03:06:26.869Z,28.90
2023-01-22T03:08:57.872Z,29.40
2023-01-22T03:11:27.661Z,29.00
2023-01-22T03:14:13.754Z,28.40
2023-01-22T03:17:00.448Z,28.00
2023-01-22T03:19:46.942Z,27.53
2023-01-22T03:22:20.102Z,28.63
2023-01-22T03:24:52.781Z,27.77
2023-01-22T03:27:26.055Z,28.60
2023-01-22T03:29:54.966Z,28.17
2023-01-22T03:32:24.098Z,27.83
2023-01-22T03:34:53.887Z,28.10
2023-01-22T03:37:23.682Z,27.07
2023-01-22T03:39:57.424Z,27.23
2023-01-22T03:42:36.388Z,27.80
2023-01-22T03:45:04.724Z,27.47
2023-01-22T03:47:35.175Z,27.47
2023-01-22T03:50:09.808Z,27.17
2023-01-22T03:52:38.003Z,26.30
2023-01-22T03:55:08.403Z,26.67
2023-01-22T03:57:36.739Z,26.97
2023-01-22T04:00:07.859Z,26.83
2023-01-22T04:02:40.635Z,26.63
2023-01-22T04:05:19.092Z,27.37
2023-01-22T04:07:47.472Z,27.13
2023-01-22T04:10:19.014Z,26.87
2023-01-22T04:12:47.595Z,27.30
2023-01-22T04:15:18.596Z,27.10
2023-01-22T04:17:47.587Z,27.73
2023-01-22T04:20:35.900Z,28.27
2023-01-22T04:23:19.474Z,27.90
2023-01-22T04:25:49.711Z,27.33
2023-01-22T04:28:18.423Z,28.00
2023-01-22T04:30:53.188Z,27.90
2023-01-22T04:33:32.397Z,28.00
2023-01-22T04:36:09.674Z,27.77
2023-01-22T04:38:38.509Z,28.63
2023-01-22T04:41:08.081Z,28.47
2023-01-22T04:43:36.257Z,28.73
2023-01-22T04:46:04.743Z,27.73
2023-01-22T04:48:34.429Z,27.27
2023-01-22T04:51:02.687Z,27.63
2023-01-22T04:53:32.801Z,27.77
2023-01-22T04:56:01.994Z,27.20
2023-01-22T04:58:31.776Z,28.13
2023-01-22T05:01:01.386Z,28.50
2023-01-22T05:03:31.277Z,29.13
2023-01-22T05:06:04.858Z,28.67
2023-01-22T05:08:35.571Z,29.00
2023-01-22T05:11:04.814Z,28.87
2023-01-22T05:13:41.910Z,28.93
2023-01-22T05:16:10.337Z,28.57
2023-01-22T05:18:38.530Z,27.93
2023-01-22T05:21:06.985Z,28.10
2023-01-22T05:23:37.263Z,28.03
2023-01-22T05:26:05.413Z,28.90
2023-01-22T05:28:43.266Z,28.57
2023-01-22T05:31:30.089Z,29.50
2023-01-22T05:34:03.074Z,29.23
2023-01-22T05:36:32.336Z,29.27
2023-01-22T05:39:09.090Z,28.83
2023-01-22T05:41:37.485Z,28.97
2023-01-22T05:44:07.862Z,28.57
2023-01-22T05:46:38.063Z,28.37
2023-01-22T05:49:15.198Z,28.23
2023-01-22T05:51:43.419Z,29.03
2023-01-22T05:54:11.547Z,28.60
2023-01-22T05:56:42.594Z,28.67
2023-01-22T05:59:13.178Z,28.30
2023-01-22T06:01:42.527Z,28.67
2023-01-22T06:04:11.305Z,28.93
2023-01-22T06:06:39.673Z,28.80
2023-01-22T06:09:08.195Z,29.27
2023-01-22T06:11:38.810Z,29.07
2023-01-22T06:14:07.387Z,28.90
2023-01-22T06:16:36.806Z,29.73
2023-01-22T06:19:27.993Z,28.03
2023-01-22T06:21:56.653Z,28.90
2023-01-22T06:24:43.097Z,28.83
2023-01-22T06:27:12.290Z,28.03
2023-01-22T06:29:50.249Z,28.20
2023-01-22T06:32:19.864Z,28.33
2023-01-22T06:34:47.978Z,28.27
2023-01-22T06:37:17.339Z,28.77
2023-01-22T06:39:45.492Z,29.37
2023-01-22T06:42:26.838Z,30.17
2023-01-22T06:44:55.106Z,29.00
2023-01-22T06:47:27.871Z,29.73
2023-01-22T06:49:56.521Z,29.40
2023-01-22T06:52:24.696Z,29.57
2023-01-22T06:54:52.887Z,29.37
2023-01-22T06:57:21.149Z,29.70
2023-01-22T06:59:49.259Z,29.07
2023-01-22T07:02:18.254Z,28.70
2023-01-22T07:04:47.953Z,28.47
2023-01-22T07:07:16.313Z,28.80
2023-01-22T07:09:44.411Z,28.50
2023-01-22T07:12:12.537Z,29.37
2023-01-22T07:14:40.671Z,28.93
2023-01-22T07:17:08.867Z,29.00
2023-01-22T07:19:37.058Z,29.13
2023-01-22T07:22:06.530Z,28.93
2023-01-22T07:24:34.868Z,29.27
2023-01-22T07:27:03.461Z,28.30
2023-01-22T07:29:31.510Z,28.83
2023-01-22T07:31:59.820Z,29.03
2023-01-22T07:34:27.967Z,28.77
2023-01-22T07:36:56.003Z,29.00
2023-01-22T07:39:25.620Z,29.63
2023-01-22T07:41:54.074Z,29.47
2023-01-22T07:44:22.330Z,29.67
2023-01-22T07:46:50.590Z,29.33
2023-01-22T07:49:18.804Z,29.27
2023-01-22T07:51:46.911Z,30.03
2023-01-22T07:54:17.497Z,28.67
2023-01-22T07:56:47.893Z,29.47
2023-01-22T07:59:15.997Z,29.40
2023-01-22T08:01:44.212Z,29.57
2023-01-22T08:04:12.250Z,31.20
2023-01-22T08:06:40.371Z,31.73
2023-01-22T08:09:08.437Z,30.90
2023-01-22T08:11:36.573Z,30.17
2023-01-22T08:14:05.990Z,29.80
2023-01-22T08:16:35.899Z,29.50
2023-01-22T08:19:04.241Z,29.30
2023-01-22T08:21:33.440Z,29.30
2023-01-22T08:24:01.558Z,29.80
2023-01-22T08:26:30.153Z,29.37
2023-01-22T08:28:58.194Z,29.80
2023-01-22T08:31:28.793Z,29.90
2023-01-22T08:33:59.743Z,29.53
2023-01-22T08:36:28.248Z,29.37
2023-01-22T08:38:57.061Z,30.17
2023-01-22T08:41:25.913Z,29.77
2023-01-22T08:43:54.082Z,30.37
2023-01-22T08:46:22.236Z,30.73
2023-01-22T08:48:52.138Z,29.53
2023-01-22T08:51:22.751Z,29.57
2023-01-22T08:53:51.309Z,28.97
2023-01-22T08:56:19.354Z,43.27
2023-01-22T08:58:50.076Z,30.60
2023-01-22T09:01:19.622Z,29.20
2023-01-22T09:03:48.761Z,29.17
2023-01-22T09:06:18.588Z,29.07
2023-01-22T09:08:46.689Z,29.07
2023-01-22T09:11:14.821Z,28.57
2023-01-22T09:13:42.974Z,27.70
2023-01-22T09:16:11.853Z,28.47
2023-01-22T09:18:40.607Z,28.53
2023-01-22T09:21:09.422Z,28.13
2023-01-22T09:23:38.885Z,29.57
2023-01-22T09:26:07.154Z,27.97
2023-01-22T09:28:36.222Z,28.40
2023-01-22T09:31:04.688Z,28.30
2023-01-22T09:33:32.919Z,28.23
2023-01-22T09:36:08.973Z,28.57
2023-01-22T09:38:38.738Z,28.90
2023-01-22T09:41:16.252Z,28.87
2023-01-22T09:43:50.905Z,29.27
2023-01-22T09:46:25.700Z,27.53
2023-01-22T09:48:59.095Z,28.53
2023-01-22T09:51:27.612Z,27.93
2023-01-22T09:54:00.696Z,28.33
2023-01-22T09:56:36.225Z,28.13
2023-01-22T09:59:07.490Z,27.93
2023-01-22T10:01:37.077Z,28.37
2023-01-22T10:04:15.882Z,28.40
2023-01-22T10:06:46.020Z,27.87
2023-01-22T10:09:20.509Z,29.60
2023-01-22T10:11:54.124Z,28.90
2023-01-22T10:14:25.292Z,29.97
2023-01-22T10:16:53.535Z,28.80
2023-01-22T10:19:25.812Z,28.83
2023-01-22T10:22:00.128Z,27.93
2023-01-22T10:24:30.305Z,27.70
2023-01-22T10:26:59.749Z,27.70
2023-01-22T10:29:33.093Z,27.27
2023-01-22T10:32:03.297Z,27.80
2023-01-22T10:34:34.484Z,27.80
2023-01-22T10:37:05.058Z,28.47
2023-01-22T10:39:42.346Z,27.30
2023-01-22T10:42:17.571Z,28.80
2023-01-22T10:44:45.974Z,27.67
2023-01-22T10:47:20.602Z,29.47
2023-01-22T10:49:49.610Z,29.57
2023-01-22T10:52:24.694Z,29.97
2023-01-22T10:54:58.382Z,28.97
2023-01-22T10:57:31.571Z,30.80
2023-01-22T11:00:07.334Z,28.73
2023-01-22T11:02:36.818Z,29.63
2023-01-22T11:05:15.523Z,29.93
2023-01-22T11:07:45.344Z,31.50
2023-01-22T11:10:23.671Z,30.90
2023-01-22T11:12:57.536Z,31.40
2023-01-22T11:15:34.451Z,31.60
2023-01-22T11:18:04.318Z,31.53
2023-01-22T11:20:39.424Z,32.20
2023-01-22T11:23:26.224Z,32.83
2023-01-22T11:26:01.880Z,33.57
2023-01-22T11:28:41.837Z,33.77
2023-01-22T11:31:24.336Z,33.63
2023-01-22T11:34:13.193Z,33.67
2023-01-22T11:36:49.063Z,33.83
2023-01-22T11:39:28.911Z,34.43
2023-01-22T11:42:06.853Z,34.90
2023-01-22T11:44:51.051Z,34.27
2023-01-22T11:47:36.957Z,35.37
2023-01-22T11:50:24.555Z,34.63
2023-01-22T11:53:01.152Z,35.47
2023-01-22T11:55:52.355Z,36.13
2023-01-22T11:58:32.601Z,36.60
2023-01-22T12:01:16.113Z,36.83
2023-01-22T12:04:19.842Z,36.83
2023-01-22T12:07:09.017Z,38.13
2023-01-22T12:09:44.245Z,38.97
2023-01-22T12:12:29.314Z,38.67
2023-01-22T12:15:15.856Z,38.30
2023-01-22T12:17:55.583Z,39.27
2023-01-22T12:20:43.809Z,40.23
2023-01-22T12:23:17.740Z,40.20
2023-01-22T12:25:53.173Z,39.47
2023-01-22T12:28:28.138Z,41.50
2023-01-22T12:31:02.176Z,39.30
2023-01-22T12:33:34.447Z,39.57
2023-01-22T12:36:05.640Z,40.67
2023-01-22T12:38:42.750Z,38.67
2023-01-22T12:41:28.677Z,39.27
2023-01-22T12:43:58.277Z,39.53
2023-01-22T12:46:35.607Z,39.80
2023-01-22T12:49:07.626Z,41.30
2023-01-22T12:51:38.925Z,42.70
2023-01-22T12:54:18.563Z,42.80
2023-01-22T12:56:47.289Z,40.90
2023-01-22T12:59:43.845Z,42.47
2023-01-22T13:02:38.015Z,44.00
2023-01-22T13:05:22.176Z,43.90
2023-01-22T13:08:02.030Z,43.80
2023-01-22T13:10:32.017Z,43.20
2023-01-22T13:13:04.427Z,48.60
2023-01-22T13:15:35.850Z,43.17
2023-01-22T13:18:08.353Z,44.13
2023-01-22T13:20:39.199Z,44.73
2023-01-22T13:23:08.361Z,45.10
2023-01-22T13:25:36.452Z,44.07
2023-01-22T13:28:04.829Z,45.00
2023-01-22T13:30:33.421Z,44.27
2023-01-22T13:33:08.380Z,45.43
2023-01-22T13:35:37.668Z,54.30
2023-01-22T13:38:05.761Z,46.63
2023-01-22T13:40:46.288Z,46.20
2023-01-22T13:43:21.103Z,45.80
2023-01-22T13:45:50.307Z,49.20
2023-01-22T13:48:22.252Z,76.43
2023-01-22T13:50:56.157Z,54.10
2023-01-22T13:53:29.601Z,53.00
2023-01-22T13:55:58.488Z,50.90
2023-01-22T13:58:48.024Z,63.53
2023-01-22T14:01:29.287Z,53.03
2023-01-22T14:04:03.437Z,75.57
2023-01-22T14:06:43.090Z,61.47
2023-01-22T14:09:11.223Z,66.03
2023-01-22T14:11:40.279Z,51.33
2023-01-22T14:14:17.078Z,122.23
2023-01-22T14:16:45.387Z,42.83
2023-01-22T14:19:15.220Z,50.77
2023-01-22T14:21:43.580Z,52.33
2023-01-22T14:24:11.801Z,52.63
2023-01-22T14:26:39.982Z,49.23
2023-01-22T14:29:09.465Z,95.90
2023-01-22T14:31:37.648Z,48.30
2023-01-22T14:34:05.759Z,47.80
2023-01-22T14:36:35.438Z,69.87
2023-01-22T14:39:05.809Z,45.10
2023-01-22T14:41:34.895Z,52.40
2023-01-22T14:44:03.886Z,45.97
2023-01-22T14:46:37.896Z,47.63
2023-01-22T14:49:06.812Z,45.70
2023-01-22T14:51:36.300Z,60.60
2023-01-22T14:54:04.423Z,48.57
2023-01-22T14:56:32.556Z,48.20
2023-01-22T14:59:00.773Z,59.10
2023-01-22T15:01:29.174Z,79.53
2023-01-22T15:03:57.316Z,48.33
2023-01-22T15:06:25.768Z,62.10
2023-01-22T15:08:55.374Z,54.67
2023-01-22T15:22:27.229Z,57.73
2023-01-22T15:24:55.391Z,88.30
2023-01-22T15:27:23.473Z,52.17
2023-01-22T15:29:51.582Z,52.03
2023-01-22T15:32:19.894Z,84.90
2023-01-22T15:34:47.967Z,62.47
2023-01-22T15:37:16.107Z,54.40
2023-01-22T15:39:45.566Z,69.83
2023-01-22T15:42:13.710Z,61.77
2023-01-22T15:44:41.926Z,63.53
2023-01-22T15:47:10.905Z,88.33
2023-01-22T15:49:39.129Z,54.73
2023-01-22T15:52:07.346Z,110.97
2023-01-22T15:54:35.406Z,55.63
2023-01-22T15:57:05.120Z,55.37
2023-01-22T15:59:33.325Z,69.37
2023-01-22T16:02:01.569Z,57.23
2023-01-22T16:04:29.709Z,103.80
2023-01-22T16:06:57.948Z,101.87
2023-01-22T16:09:26.032Z,103.57
2023-01-22T16:11:54.234Z,67.87
2023-01-22T16:14:23.705Z,64.40
2023-01-22T16:16:51.980Z,89.13
2023-01-22T16:19:20.114Z,68.03
2023-01-22T16:21:48.329Z,70.27
2023-01-22T16:24:16.453Z,89.17
2023-01-22T16:26:44.544Z,73.23
2023-01-22T16:29:12.962Z,81.70
2023-01-22T16:31:42.620Z,76.50
2023-01-22T16:34:12.967Z,80.10
2023-01-22T16:36:41.886Z,81.40
2023-01-22T16:39:15.550Z,96.97
2023-01-22T16:41:43.722Z,89.00
2023-01-22T16:44:13.487Z,111.57
2023-01-22T16:46:44.745Z,91.70
2023-01-22T16:49:16.225Z,67.60
2023-01-22T16:51:45.977Z,64.20
2023-01-22T16:54:24.166Z,85.03
2023-01-22T16:56:52.541Z,69.63
2023-01-22T16:59:20.702Z,67.80
2023-01-22T17:01:50.328Z,93.97
2023-01-22T17:04:18.608Z,68.70
2023-01-22T17:06:48.461Z,64.17
2023-01-22T17:09:19.507Z,91.93
2023-01-22T17:11:50.792Z,89.87
2023-01-22T17:14:22.619Z,66.73
2023-01-22T17:16:52.617Z,84.97
2023-01-22T17:19:21.073Z,104.93
2023-01-22T17:21:51.567Z,65.67
2023-01-22T17:24:19.758Z,72.63
2023-01-22T17:26:48.205Z,65.83
2023-01-22T17:29:16.753Z,91.47
2023-01-22T17:31:44.899Z,123.90
2023-01-22T17:34:14.527Z,124.87
2023-01-22T17:36:43.108Z,69.57
2023-01-22T17:39:16.011Z,82.03
2023-01-22T17:41:44.505Z,74.63
2023-01-22T17:44:13.401Z,87.93
2023-01-22T17:46:41.820Z,65.73
2023-01-22T17:49:11.382Z,100.27
2023-01-22T17:51:41.452Z,59.10
2023-01-22T17:54:10.625Z,84.17
2023-01-22T17:56:43.168Z,104.67
2023-01-22T17:59:13.140Z,110.87
2023-01-22T18:01:41.794Z,70.60
2023-01-22T18:04:11.626Z,65.53
2023-01-22T18:06:42.991Z,114.97
2023-01-22T18:09:12.673Z,57.00
2023-01-22T18:11:41.448Z,78.53
2023-01-22T18:14:12.920Z,56.63
2023-01-22T18:16:42.046Z,56.00
2023-01-22T18:19:10.290Z,76.20
2023-01-22T18:21:40.902Z,74.57
2023-01-22T18:24:11.848Z,55.10
2023-01-22T18:26:40.344Z,54.13
2023-01-22T18:29:09.037Z,52.30
2023-01-22T18:31:38.118Z,58.53
2023-01-22T18:34:08.124Z,59.03
2023-01-22T18:36:39.277Z,63.33
2023-01-22T18:39:15.524Z,55.07
2023-01-22T18:41:45.145Z,55.20
2023-01-22T18:44:16.727Z,75.00
2023-01-22T18:46:48.273Z,91.30
2023-01-22T18:49:19.654Z,94.30
2023-01-22T18:51:48.455Z,110.03
2023-01-22T18:54:18.541Z,53.43
2023-01-22T18:56:47.333Z,55.07
2023-01-22T18:59:15.399Z,73.50
2023-01-22T19:01:50.131Z,67.50
2023-01-22T19:04:21.881Z,77.80
2023-01-22T19:06:57.167Z,69.60
2023-01-22T19:09:28.030Z,61.27
2023-01-22T19:11:56.324Z,57.50
2023-01-22T19:14:24.424Z,65.80
2023-01-22T19:16:53.911Z,57.23
2023-01-22T19:19:25.606Z,57.83
2023-01-22T19:21:58.065Z,68.47
2023-01-22T19:24:28.596Z,88.07
2023-01-22T19:26:58.123Z,60.80
2023-01-22T19:29:27.119Z,90.20
2023-01-22T19:31:57.105Z,94.27
2023-01-22T19:34:25.917Z,65.17
2023-01-22T19:36:55.612Z,68.93
2023-01-22T19:39:25.380Z,55.00
2023-01-22T19:41:55.316Z,61.27
2023-01-22T19:44:23.853Z,111.53
2023-01-22T19:46:52.096Z,60.20
2023-01-22T19:49:20.411Z,83.97
2023-01-22T19:51:48.815Z,74.37
2023-01-22T19:54:17.729Z,89.50
2023-01-22T19:56:46.051Z,79.47
2023-01-22T19:59:18.161Z,57.90
2023-01-22T20:01:48.598Z,97.30
2023-01-22T20:04:20.780Z,59.37
2023-01-22T20:06:50.992Z,146.70
2023-01-22T20:09:21.871Z,51.37
2023-01-22T20:11:53.555Z,51.43
2023-01-22T20:14:24.146Z,58.60
2023-01-22T20:16:52.852Z,54.20
2023-01-22T20:19:20.918Z,56.97
2023-01-22T20:21:49.254Z,54.50
2023-01-22T20:24:17.763Z,71.77
2023-01-22T20:26:45.956Z,64.10
2023-01-22T20:29:14.311Z,79.00
2023-01-22T20:31:44.475Z,69.10
2023-01-22T20:34:12.775Z,103.90
2023-01-22T20:36:40.877Z,92.83
2023-01-22T20:39:08.947Z,143.47
2023-01-22T20:41:36.996Z,53.47
2023-01-22T20:44:05.406Z,85.37
2023-01-22T20:46:34.725Z,55.40
2023-01-22T20:49:04.653Z,69.53
2023-01-22T20:51:32.960Z,52.83
2023-01-22T20:54:01.580Z,56.27
2023-01-22T20:56:32.860Z,68.70
2023-01-22T20:59:02.842Z,101.50
2023-01-22T21:01:31.512Z,60.70
2023-01-22T21:04:00.909Z,77.17
2023-01-22T21:06:32.577Z,83.23
2023-01-22T21:09:02.106Z,87.83
2023-01-22T21:11:32.099Z,69.87
2023-01-22T21:14:01.994Z,85.83
2023-01-22T21:16:32.847Z,66.00
2023-01-22T21:19:02.257Z,61.27
2023-01-22T21:21:33.199Z,125.20
2023-01-22T21:24:02.207Z,61.63
2023-01-22T21:26:33.302Z,125.03
2023-01-22T21:29:03.322Z,99.40
2023-01-22T21:31:32.263Z,80.33
2023-01-22T21:34:03.633Z,70.00
2023-01-22T21:36:37.233Z,81.90
2023-01-22T21:39:07.066Z,58.37
2023-01-22T21:41:35.561Z,99.70
2023-01-22T21:44:21.112Z,99.27
2023-01-22T21:46:49.638Z,133.60
2023-01-22T21:49:20.047Z,59.80
2023-01-22T21:51:50.973Z,89.80
2023-01-22T21:54:20.971Z,65.77
2023-01-22T21:56:49.438Z,71.90
2023-01-22T21:59:17.975Z,89.20
2023-01-22T22:01:46.905Z,67.37
2023-01-22T22:04:16.197Z,150.03
2023-01-22T22:06:44.287Z,103.93
2023-01-22T22:09:15.587Z,75.47
2023-01-22T22:11:44.097Z,55.47
2023-01-22T22:14:15.780Z,66.27
2023-01-22T22:16:44.294Z,82.50
2023-01-22T22:19:13.137Z,84.20
2023-01-22T22:21:41.479Z,57.60
2023-01-22T22:24:10.796Z,71.13
2023-01-22T22:26:41.451Z,78.13
2023-01-22T22:29:10.427Z,56.43
2023-01-22T22:31:39.315Z,58.27
2023-01-22T22:34:07.987Z,83.80
2023-01-22T22:36:36.148Z,70.00
2023-01-22T22:39:06.538Z,93.50
2023-01-22T22:41:38.583Z,103.17
2023-01-22T22:44:10.373Z,97.27
2023-01-22T22:46:40.238Z,93.87
2023-01-22T22:49:12.661Z,65.37
2023-01-22T22:51:43.505Z,112.13
2023-01-22T22:54:16.595Z,84.23
2023-01-22T22:56:45.725Z,62.43
2023-01-22T22:59:16.170Z,77.47
2023-01-22T23:01:44.258Z,126.57
2023-01-22T23:04:13.827Z,121.40
2023-01-22T23:06:44.643Z,67.87
2023-01-22T23:09:14.287Z,89.57
2023-01-22T23:11:42.927Z,73.43
2023-01-22T23:14:11.579Z,75.53
2023-01-22T23:16:43.023Z,60.53
2023-01-22T23:19:15.462Z,72.27
2023-01-22T23:21:44.061Z,61.97
2023-01-22T23:24:13.974Z,63.60
2023-01-22T23:26:44.651Z,94.37
2023-01-22T23:29:15.467Z,67.60
2023-01-22T23:31:45.436Z,62.00
2023-01-22T23:34:15.447Z,86.47
2023-01-22T23:36:45.679Z,68.57
2023-01-22T23:39:16.481Z,61.20
2023-01-22T23:41:45.412Z,68.93
2023-01-22T23:44:13.741Z,89.40
2023-01-22T23:46:42.451Z,64.40
2023-01-22T23:49:12.079Z,68.13
2023-01-22T23:51:42.246Z,90.20
2023-01-22T23:54:10.622Z,73.13
2023-01-22T23:56:38.863Z,65.80
2023-01-22T23:59:07.119Z,60.20
